createdAt,value
2023-04-26T00:00:10.076Z,3.77
2023-04-26T00:01:10.053Z,3.76
2023-04-26T00:02:10.064Z,3.70
2023-04-26T00:03:10.368Z,3.65
2023-04-26T00:04:10.357Z,3.62
2023-04-26T00:05:10.298Z,3.58
2023-04-26T00:06:10.048Z,3.53
2023-04-26T00:07:10.028Z,3.44
2023-04-26T00:08:09.971Z,3.40
2023-04-26T00:09:09.972Z,3.34
2023-04-26T00:10:09.949Z,3.31
2023-04-26T00:11:09.960Z,3.29
2023-04-26T00:12:09.923Z,3.28
2023-04-26T00:13:09.964Z,3.25
2023-04-26T00:14:09.905Z,3.25
2023-04-26T00:15:09.910Z,3.23
2023-04-26T00:16:09.930Z,3.25
2023-04-26T00:17:09.876Z,3.25
2023-04-26T00:18:09.903Z,3.26
2023-04-26T00:19:09.855Z,3.25
2023-04-26T00:20:09.866Z,3.23
2023-04-26T00:21:09.836Z,3.25
2023-04-26T00:22:09.813Z,3.25
2023-04-26T00:23:10.825Z,3.26
2023-04-26T00:24:09.794Z,3.25
2023-04-26T00:25:09.818Z,3.19
2023-04-26T00:26:09.774Z,3.19
2023-04-26T00:27:09.792Z,3.16
2023-04-26T00:28:11.789Z,3.16
2023-04-26T00:29:09.754Z,3.16
2023-04-26T00:30:09.736Z,3.18
2023-04-26T00:31:09.787Z,3.16
2023-04-26T00:32:09.760Z,3.14
2023-04-26T00:33:09.836Z,3.16
2023-04-26T00:34:09.693Z,3.14
2023-04-26T00:35:09.687Z,3.11
2023-04-26T00:36:09.672Z,3.10
2023-04-26T00:37:09.661Z,3.07
2023-04-26T00:38:09.678Z,3.01
2023-04-26T00:39:09.676Z,2.98
2023-04-26T00:40:09.618Z,2.93
2023-04-26T00:41:09.625Z,2.93
2023-04-26T00:42:09.595Z,2.93
2023-04-26T00:43:09.590Z,2.93
2023-04-26T00:44:09.611Z,2.92
2023-04-26T00:45:09.567Z,2.90
2023-04-26T00:46:09.619Z,2.90
2023-04-26T00:47:09.577Z,2.87
2023-04-26T00:48:09.573Z,2.87
2023-04-26T00:49:09.555Z,2.85
2023-04-26T00:50:09.523Z,2.83
2023-04-26T00:51:09.535Z,2.85
2023-04-26T00:52:09.487Z,2.85
2023-04-26T00:53:09.489Z,2.85
2023-04-26T00:54:09.474Z,2.85
2023-04-26T00:55:09.497Z,2.85
2023-04-26T00:56:09.550Z,2.83
2023-04-26T00:57:09.459Z,2.79
2023-04-26T00:58:09.428Z,2.75
2023-04-26T00:59:09.422Z,2.72
2023-04-26T01:00:09.418Z,2.71
2023-04-26T01:01:09.455Z,2.69
2023-04-26T01:02:09.457Z,2.69
2023-04-26T01:03:09.501Z,2.69
2023-04-26T01:04:09.487Z,2.65
2023-04-26T01:05:09.403Z,2.62
2023-04-26T01:06:09.345Z,2.56
2023-04-26T01:07:09.373Z,2.54
2023-04-26T01:08:09.328Z,2.51
2023-04-26T01:09:09.309Z,2.51
2023-04-26T01:10:09.295Z,2.51
2023-04-26T01:11:09.310Z,2.54
2023-04-26T01:12:09.295Z,2.53
2023-04-26T01:13:09.285Z,2.53
2023-04-26T01:14:09.252Z,2.47
2023-04-26T01:15:09.242Z,2.46
2023-04-26T01:16:09.267Z,2.46
2023-04-26T01:17:09.356Z,2.46
2023-04-26T01:18:09.210Z,2.51
2023-04-26T01:19:09.229Z,2.53
2023-04-26T01:20:09.211Z,2.54
2023-04-26T01:21:09.179Z,2.54
2023-04-26T01:22:09.150Z,2.56
2023-04-26T01:23:09.166Z,2.54
2023-04-26T01:24:09.150Z,2.50
2023-04-26T01:25:09.162Z,2.46
2023-04-26T01:26:09.136Z,2.43
2023-04-26T01:27:09.099Z,2.43
2023-04-26T01:28:09.087Z,2.39
2023-04-26T01:29:09.098Z,2.35
2023-04-26T01:30:10.057Z,2.31
2023-04-26T01:31:09.089Z,2.31
2023-04-26T01:32:09.054Z,2.26
2023-04-26T01:33:09.128Z,2.22
2023-04-26T01:34:09.032Z,2.17
2023-04-26T01:35:10.518Z,2.14
2023-04-26T01:36:09.969Z,2.13
2023-04-26T01:37:09.010Z,2.10
2023-04-26T01:38:08.998Z,2.06
2023-04-26T01:39:17.049Z,2.04
2023-04-26T01:40:08.972Z,2.06
2023-04-26T01:41:08.965Z,2.04
2023-04-26T01:42:08.957Z,2.02
2023-04-26T01:43:08.934Z,2.04
2023-04-26T01:44:08.929Z,2.00
2023-04-26T01:45:08.968Z,2.04
2023-04-26T01:46:08.932Z,2.04
2023-04-26T01:47:08.895Z,2.04
2023-04-26T01:48:09.006Z,2.07
2023-04-26T01:49:09.054Z,2.10
2023-04-26T01:50:08.863Z,2.10
2023-04-26T01:51:08.862Z,2.08
2023-04-26T01:52:08.824Z,2.06
2023-04-26T01:53:08.825Z,2.02
2023-04-26T01:54:08.811Z,2.00
2023-04-26T01:55:08.847Z,1.95
2023-04-26T01:56:08.811Z,1.99
2023-04-26T01:57:08.795Z,1.99
2023-04-26T01:58:08.782Z,1.97
2023-04-26T01:59:08.753Z,1.95
2023-04-26T02:00:09.091Z,1.95
2023-04-26T02:01:08.796Z,1.95
2023-04-26T02:02:08.762Z,1.94
2023-04-26T02:03:08.765Z,1.89
2023-04-26T02:04:08.710Z,1.89
2023-04-26T02:05:08.769Z,1.89
2023-04-26T02:06:08.680Z,1.92
2023-04-26T02:07:08.699Z,1.94
2023-04-26T02:08:08.653Z,1.97
2023-04-26T02:09:08.744Z,1.92
2023-04-26T02:10:08.769Z,1.91
2023-04-26T02:11:08.640Z,1.89
2023-04-26T02:12:08.820Z,1.89
2023-04-26T02:13:08.620Z,1.88
2023-04-26T02:14:08.612Z,1.89
2023-04-26T02:15:08.590Z,1.91
2023-04-26T02:16:08.607Z,1.92
2023-04-26T02:17:08.556Z,1.91
2023-04-26T02:18:08.617Z,1.87
2023-04-26T02:19:08.553Z,1.85
2023-04-26T02:20:08.522Z,1.85
2023-04-26T02:21:08.552Z,1.84
2023-04-26T02:22:08.507Z,1.80
2023-04-26T02:23:08.509Z,1.76
2023-04-26T02:24:09.510Z,1.74
2023-04-26T02:25:08.486Z,1.73
2023-04-26T02:26:08.461Z,1.74
2023-04-26T02:27:08.501Z,1.76
2023-04-26T02:28:08.452Z,1.77
2023-04-26T02:29:08.483Z,1.77
2023-04-26T02:30:08.440Z,1.77
2023-04-26T02:31:08.475Z,1.78
2023-04-26T02:32:08.400Z,1.80
2023-04-26T02:33:08.625Z,1.78
2023-04-26T02:34:08.380Z,1.76
2023-04-26T02:35:08.408Z,1.71
2023-04-26T02:36:08.358Z,1.71
2023-04-26T02:37:08.361Z,1.68
2023-04-26T02:38:08.349Z,1.67
2023-04-26T02:39:08.350Z,1.67
2023-04-26T02:40:08.309Z,1.66
2023-04-26T02:41:08.376Z,1.66
2023-04-26T02:42:08.295Z,1.67
2023-04-26T02:43:08.343Z,1.66
2023-04-26T02:44:08.296Z,1.66
2023-04-26T02:45:08.276Z,1.66
2023-04-26T02:46:08.247Z,1.63
2023-04-26T02:47:10.816Z,1.62
2023-04-26T02:48:08.279Z,1.62
2023-04-26T02:49:09.670Z,1.63
2023-04-26T02:50:08.202Z,1.62
2023-04-26T02:51:08.184Z,1.66
2023-04-26T02:52:08.225Z,1.67
2023-04-26T02:53:08.207Z,1.67
2023-04-26T02:54:08.185Z,1.70
2023-04-26T02:55:08.145Z,1.68
2023-04-26T02:56:08.160Z,1.70
2023-04-26T02:57:08.128Z,1.63
2023-04-26T02:58:08.110Z,1.60
2023-04-26T02:59:08.128Z,1.62
2023-04-26T03:00:08.095Z,1.62
2023-04-26T03:01:08.152Z,1.59
2023-04-26T03:02:08.195Z,1.55
2023-04-26T03:03:08.180Z,1.56
2023-04-26T03:04:08.178Z,1.55
2023-04-26T03:05:08.073Z,1.53
2023-04-26T03:06:08.021Z,1.53
2023-04-26T03:07:08.020Z,1.55
2023-04-26T03:08:08.019Z,1.52
2023-04-26T03:09:08.696Z,1.49
2023-04-26T03:10:08.003Z,1.50
2023-04-26T03:11:07.965Z,1.49
2023-04-26T03:12:08.048Z,1.45
2023-04-26T03:13:07.958Z,1.45
2023-04-26T03:14:07.937Z,1.45
2023-04-26T03:15:07.966Z,1.45
2023-04-26T03:16:08.005Z,1.44
2023-04-26T03:17:07.903Z,1.44
2023-04-26T03:18:09.427Z,1.45
2023-04-26T03:19:07.965Z,1.44
2023-04-26T03:20:07.889Z,1.40
2023-04-26T03:21:07.870Z,1.40
2023-04-26T03:22:07.859Z,1.40
2023-04-26T03:23:07.879Z,1.35
2023-04-26T03:24:07.831Z,1.31
2023-04-26T03:25:07.839Z,1.24
2023-04-26T03:26:07.809Z,1.22
2023-04-26T03:27:07.806Z,1.20
2023-04-26T03:28:07.790Z,1.19
2023-04-26T03:29:07.794Z,1.19
2023-04-26T03:30:07.792Z,1.22
2023-04-26T03:31:07.749Z,1.22
2023-04-26T03:32:07.817Z,1.22
2023-04-26T03:33:07.907Z,1.24
2023-04-26T03:34:07.749Z,1.30
2023-04-26T03:35:07.763Z,1.30
2023-04-26T03:36:07.686Z,1.28
2023-04-26T03:37:07.858Z,1.26
2023-04-26T03:38:07.719Z,1.26
2023-04-26T03:39:08.676Z,1.24
2023-04-26T03:40:08.612Z,1.24
2023-04-26T03:41:07.681Z,1.23
2023-04-26T03:42:07.662Z,1.22
2023-04-26T03:43:07.645Z,1.22
2023-04-26T03:44:07.730Z,1.19
2023-04-26T03:45:07.612Z,1.17
2023-04-26T03:46:07.686Z,1.17
2023-04-26T03:47:07.698Z,1.19
2023-04-26T03:48:07.752Z,1.19
2023-04-26T03:49:07.621Z,1.20
2023-04-26T03:50:07.952Z,1.23
2023-04-26T03:51:07.860Z,1.26
2023-04-26T03:52:07.527Z,1.24
2023-04-26T03:53:07.519Z,1.23
2023-04-26T03:54:07.509Z,1.20
2023-04-26T03:55:07.507Z,1.20
2023-04-26T03:56:07.532Z,1.20
2023-04-26T03:57:07.459Z,1.20
2023-04-26T03:58:07.460Z,1.19
2023-04-26T03:59:07.476Z,1.17
2023-04-26T04:00:07.476Z,1.14
2023-04-26T04:01:07.445Z,1.13
2023-04-26T04:02:07.478Z,1.13
2023-04-26T04:03:07.741Z,1.13
2023-04-26T04:04:07.785Z,1.13
2023-04-26T04:05:07.430Z,1.13
2023-04-26T04:06:07.378Z,1.14
2023-04-26T04:07:07.457Z,1.16
2023-04-26T04:08:07.399Z,1.16
2023-04-26T04:09:08.304Z,1.14
2023-04-26T04:10:07.408Z,1.14
2023-04-26T04:11:07.321Z,1.12
2023-04-26T04:12:07.317Z,1.10
2023-04-26T04:13:07.306Z,1.08
2023-04-26T04:14:07.307Z,1.10
2023-04-26T04:15:07.290Z,1.14
2023-04-26T04:16:07.310Z,1.20
2023-04-26T04:17:07.260Z,1.22
2023-04-26T04:18:07.365Z,1.22
2023-04-26T04:19:08.535Z,1.24
2023-04-26T04:20:07.234Z,1.24
2023-04-26T04:21:07.223Z,1.26
2023-04-26T04:22:07.221Z,1.24
2023-04-26T04:23:08.030Z,1.20
2023-04-26T04:24:07.199Z,1.20
2023-04-26T04:25:07.175Z,1.20
2023-04-26T04:26:07.312Z,1.22
2023-04-26T04:27:07.162Z,1.23
2023-04-26T04:28:07.159Z,1.23
2023-04-26T04:29:07.526Z,1.23
2023-04-26T04:30:07.101Z,1.24
2023-04-26T04:31:07.175Z,1.24
2023-04-26T04:32:08.552Z,1.28
2023-04-26T04:33:07.165Z,1.30
2023-04-26T04:34:07.068Z,1.31
2023-04-26T04:35:07.074Z,1.32
2023-04-26T04:36:07.095Z,1.31
2023-04-26T04:37:07.035Z,1.30
2023-04-26T04:38:07.047Z,1.28
2023-04-26T04:39:07.041Z,1.26
2023-04-26T04:40:07.869Z,1.22
2023-04-26T04:41:07.037Z,1.17
2023-04-26T04:42:07.032Z,1.17
2023-04-26T04:43:07.027Z,1.19
2023-04-26T04:44:06.952Z,1.24
2023-04-26T04:45:07.010Z,1.26
2023-04-26T04:46:06.986Z,1.30
2023-04-26T04:47:06.970Z,1.32
2023-04-26T04:48:06.956Z,1.32
2023-04-26T04:49:08.369Z,1.37
2023-04-26T04:50:06.885Z,1.35
2023-04-26T04:51:06.901Z,1.34
2023-04-26T04:52:06.922Z,1.34
2023-04-26T04:53:06.912Z,1.34
2023-04-26T04:54:06.860Z,1.32
2023-04-26T04:55:06.849Z,1.35
2023-04-26T04:56:06.880Z,1.32
2023-04-26T04:57:06.817Z,1.32
2023-04-26T04:58:07.825Z,1.34
2023-04-26T04:59:06.928Z,1.34
2023-04-26T05:00:06.820Z,1.37
2023-04-26T05:01:06.767Z,1.42
2023-04-26T05:02:06.799Z,1.48
2023-04-26T05:03:07.741Z,1.50
2023-04-26T05:04:07.114Z,1.52
2023-04-26T05:05:06.923Z,1.55
2023-04-26T05:06:06.742Z,1.55
2023-04-26T05:07:06.908Z,1.56
2023-04-26T05:08:06.710Z,1.59
2023-04-26T05:09:07.449Z,1.60
2023-04-26T05:10:06.716Z,1.63
2023-04-26T05:11:06.689Z,1.67
2023-04-26T05:12:06.661Z,1.70
2023-04-26T05:13:06.645Z,1.70
2023-04-26T05:14:06.660Z,1.70
2023-04-26T05:15:06.624Z,1.71
2023-04-26T05:16:06.647Z,1.74
2023-04-26T05:17:06.625Z,1.78
2023-04-26T05:18:06.638Z,1.84
2023-04-26T05:19:09.567Z,1.85
2023-04-26T05:20:06.569Z,1.88
2023-04-26T05:21:06.553Z,1.92
2023-04-26T05:22:06.582Z,1.95
2023-04-26T05:23:06.534Z,2.00
2023-04-26T05:24:06.538Z,2.04
2023-04-26T05:25:06.529Z,2.04
2023-04-26T05:26:06.523Z,2.06
2023-04-26T05:27:06.522Z,2.08
2023-04-26T05:28:06.520Z,2.13
2023-04-26T05:29:06.475Z,2.18
2023-04-26T05:30:06.494Z,2.20
2023-04-26T05:31:06.458Z,2.24
2023-04-26T05:32:06.473Z,2.28
2023-04-26T05:33:06.490Z,2.29
2023-04-26T05:34:06.442Z,2.32
2023-04-26T05:35:06.416Z,2.35
2023-04-26T05:36:06.402Z,2.36
2023-04-26T05:37:06.532Z,2.38
2023-04-26T05:38:06.411Z,2.42
2023-04-26T05:39:06.393Z,2.46
2023-04-26T05:40:06.381Z,2.53
2023-04-26T05:41:06.373Z,2.60
2023-04-26T05:42:06.331Z,2.64
2023-04-26T05:43:06.356Z,2.67
2023-04-26T05:44:06.325Z,2.69
2023-04-26T05:45:06.332Z,2.79
2023-04-26T05:46:06.356Z,2.83
2023-04-26T05:47:06.286Z,2.86
2023-04-26T05:48:06.323Z,2.90
2023-04-26T05:49:06.256Z,2.97
2023-04-26T05:50:06.283Z,3.03
2023-04-26T05:51:06.283Z,3.07
2023-04-26T05:52:06.222Z,3.13
2023-04-26T05:53:06.235Z,3.18
2023-04-26T05:54:06.215Z,3.22
2023-04-26T05:55:07.721Z,3.31
2023-04-26T05:56:06.212Z,3.34
2023-04-26T05:57:06.305Z,3.42
2023-04-26T05:58:06.161Z,3.45
2023-04-26T05:59:06.161Z,3.51
2023-04-26T06:00:06.195Z,3.56
2023-04-26T06:01:06.148Z,3.62
2023-04-26T06:02:06.151Z,3.68
2023-04-26T06:03:07.342Z,3.73
2023-04-26T06:04:06.702Z,3.80
2023-04-26T06:05:06.528Z,3.91
2023-04-26T06:06:06.103Z,4.02
2023-04-26T06:07:06.083Z,4.16
2023-04-26T06:08:07.533Z,4.28
2023-04-26T06:09:06.109Z,4.40
2023-04-26T06:10:06.031Z,4.55
2023-04-26T06:11:06.079Z,4.63
2023-04-26T06:12:06.975Z,4.74
2023-04-26T06:13:07.439Z,4.82
2023-04-26T06:14:14.268Z,4.87
2023-04-26T06:15:07.010Z,4.97
2023-04-26T06:16:07.432Z,5.02
2023-04-26T06:17:06.379Z,5.05
2023-04-26T06:18:07.462Z,5.07
2023-04-26T06:19:07.389Z,5.08
2023-04-26T06:20:06.801Z,5.10
2023-04-26T06:21:07.413Z,5.12
2023-04-26T06:22:07.369Z,5.14
2023-04-26T06:23:07.879Z,5.17
2023-04-26T06:24:05.939Z,5.20
2023-04-26T06:25:07.323Z,5.25
2023-04-26T06:26:05.895Z,5.29
2023-04-26T06:27:07.331Z,5.33
2023-04-26T06:28:05.830Z,5.39
2023-04-26T06:29:05.974Z,5.44
2023-04-26T06:30:05.844Z,5.47
2023-04-26T06:31:06.022Z,5.50
2023-04-26T06:32:06.302Z,5.56
2023-04-26T06:33:06.019Z,5.59
2023-04-26T06:34:08.422Z,5.59
2023-04-26T06:35:05.762Z,5.61
2023-04-26T06:36:06.586Z,5.64
2023-04-26T06:37:05.764Z,5.66
2023-04-26T06:38:05.875Z,5.68
2023-04-26T06:39:06.380Z,5.71
2023-04-26T06:40:05.737Z,5.76
2023-04-26T06:41:05.705Z,5.80
2023-04-26T06:42:05.756Z,5.84
2023-04-26T06:43:05.737Z,5.89
2023-04-26T06:44:05.705Z,5.91
2023-04-26T06:45:05.666Z,5.93
2023-04-26T06:46:05.655Z,5.98
2023-04-26T06:47:05.707Z,5.99
2023-04-26T06:48:05.670Z,6.04
2023-04-26T06:49:07.070Z,6.02
2023-04-26T06:50:05.926Z,6.01
2023-04-26T06:51:05.570Z,6.01
2023-04-26T06:52:05.568Z,5.94
2023-04-26T06:53:05.608Z,5.93
2023-04-26T06:54:05.575Z,5.89
2023-04-26T06:55:05.590Z,5.93
2023-04-26T06:56:05.530Z,5.93
2023-04-26T06:57:05.772Z,5.94
2023-04-26T06:58:05.546Z,5.98
2023-04-26T06:59:06.357Z,6.02
2023-04-26T07:00:06.947Z,6.08
2023-04-26T07:01:06.936Z,6.14
2023-04-26T07:02:07.039Z,6.17
2023-04-26T07:03:05.699Z,6.22
2023-04-26T07:04:05.593Z,6.27
2023-04-26T07:05:05.571Z,6.33
2023-04-26T07:06:05.472Z,6.41
2023-04-26T07:07:05.416Z,6.45
2023-04-26T07:08:05.381Z,6.49
2023-04-26T07:09:05.405Z,6.52
2023-04-26T07:10:05.422Z,6.56
2023-04-26T07:11:05.378Z,6.57
2023-04-26T07:12:05.503Z,6.60
2023-04-26T07:13:06.799Z,6.66
2023-04-26T07:14:05.449Z,6.69
2023-04-26T07:15:05.323Z,6.67
2023-04-26T07:16:05.359Z,6.72
2023-04-26T07:17:06.246Z,6.74
2023-04-26T07:18:05.333Z,6.81
2023-04-26T07:19:06.114Z,6.87
2023-04-26T07:20:05.300Z,6.93
2023-04-26T07:21:06.706Z,6.97
2023-04-26T07:22:05.226Z,7.05
2023-04-26T07:23:05.274Z,7.10
2023-04-26T07:24:05.203Z,7.15
2023-04-26T07:25:05.447Z,7.23
2023-04-26T07:26:05.468Z,7.32
2023-04-26T07:27:05.412Z,7.33
2023-04-26T07:28:05.169Z,7.39
2023-04-26T07:29:06.613Z,7.47
2023-04-26T07:30:05.143Z,7.53
2023-04-26T07:31:08.775Z,7.57
2023-04-26T07:32:05.162Z,7.63
2023-04-26T07:33:06.722Z,7.69
2023-04-26T07:34:05.153Z,7.73
2023-04-26T07:35:05.484Z,7.77
2023-04-26T07:36:05.096Z,7.82
2023-04-26T07:37:05.071Z,7.91
2023-04-26T07:38:06.327Z,7.95
2023-04-26T07:39:05.045Z,8.00
2023-04-26T07:40:05.041Z,8.05
2023-04-26T07:41:05.052Z,8.08
2023-04-26T07:42:05.044Z,8.13
2023-04-26T07:43:05.039Z,8.15
2023-04-26T07:44:05.000Z,8.15
2023-04-26T07:45:04.986Z,8.16
2023-04-26T07:46:05.381Z,8.20
2023-04-26T07:47:04.968Z,8.23
2023-04-26T07:48:05.040Z,8.27
2023-04-26T07:49:05.756Z,8.30
2023-04-26T07:50:04.967Z,8.33
2023-04-26T07:51:04.936Z,8.37
2023-04-26T07:52:04.902Z,8.38
2023-04-26T07:53:04.897Z,8.38
2023-04-26T07:54:05.843Z,8.42
2023-04-26T07:55:05.764Z,8.46
2023-04-26T07:56:06.317Z,8.51
2023-04-26T07:57:04.975Z,8.53
2023-04-26T07:58:05.794Z,8.53
2023-04-26T07:59:04.840Z,8.55
2023-04-26T08:00:04.838Z,8.53
2023-04-26T08:01:04.900Z,8.53
2023-04-26T08:02:04.854Z,8.51
2023-04-26T08:03:04.914Z,8.46
2023-04-26T08:04:05.011Z,8.38
2023-04-26T08:05:04.907Z,8.31
2023-04-26T08:06:05.748Z,8.30
2023-04-26T08:07:04.809Z,8.27
2023-04-26T08:08:04.708Z,8.24
2023-04-26T08:09:04.877Z,8.24
2023-04-26T08:10:04.689Z,8.28
2023-04-26T08:11:04.911Z,8.34
2023-04-26T08:12:04.926Z,8.41
2023-04-26T08:13:05.449Z,8.46
2023-04-26T08:14:06.116Z,8.46
2023-04-26T08:15:04.654Z,8.44
2023-04-26T08:16:04.628Z,8.44
2023-04-26T08:17:04.719Z,8.45
2023-04-26T08:18:04.711Z,8.51
2023-04-26T08:19:04.634Z,8.52
2023-04-26T08:20:04.615Z,8.56
2023-04-26T08:21:04.577Z,8.56
2023-04-26T08:22:04.564Z,8.56
2023-04-26T08:23:04.572Z,8.55
2023-04-26T08:24:05.491Z,8.56
2023-04-26T08:25:04.598Z,8.61
2023-04-26T08:26:04.572Z,8.64
2023-04-26T08:27:04.547Z,8.69
2023-04-26T08:28:06.000Z,8.74
2023-04-26T08:29:04.524Z,8.76
2023-04-26T08:30:04.561Z,8.79
2023-04-26T08:31:04.526Z,8.76
2023-04-26T08:32:04.461Z,8.73
2023-04-26T08:33:04.517Z,8.71
2023-04-26T08:34:04.475Z,8.69
2023-04-26T08:35:05.384Z,8.66
2023-04-26T08:36:04.483Z,8.61
2023-04-26T08:37:04.401Z,8.56
2023-04-26T08:38:04.460Z,8.55
2023-04-26T08:39:04.515Z,8.56
2023-04-26T08:40:04.366Z,8.52
2023-04-26T08:41:04.352Z,8.51
2023-04-26T08:42:04.337Z,8.53
2023-04-26T08:43:04.491Z,8.58
2023-04-26T08:44:04.354Z,8.63
2023-04-26T08:45:04.329Z,8.69
2023-04-26T08:46:04.550Z,8.74
2023-04-26T08:47:04.308Z,8.79
2023-04-26T08:48:04.871Z,8.84
2023-04-26T08:49:04.592Z,8.89
2023-04-26T08:50:04.276Z,8.97
2023-04-26T08:51:05.737Z,9.00
2023-04-26T08:52:04.223Z,8.97
2023-04-26T08:53:04.251Z,8.94
2023-04-26T08:54:04.937Z,8.91
2023-04-26T08:55:05.218Z,8.94
2023-04-26T08:56:04.368Z,9.00
2023-04-26T08:57:05.128Z,9.04
2023-04-26T08:58:04.195Z,9.04
2023-04-26T08:59:04.155Z,9.11
2023-04-26T09:00:04.155Z,9.16
2023-04-26T09:01:04.158Z,9.21
2023-04-26T09:02:04.186Z,9.25
2023-04-26T09:03:04.228Z,9.26
2023-04-26T09:04:04.331Z,9.29
2023-04-26T09:05:04.306Z,9.32
2023-04-26T09:06:04.503Z,9.32
2023-04-26T09:07:04.097Z,9.36
2023-04-26T09:08:04.080Z,9.36
2023-04-26T09:09:04.662Z,9.32
2023-04-26T09:10:04.072Z,9.26
2023-04-26T09:11:04.041Z,9.18
2023-04-26T09:12:04.019Z,9.10
2023-04-26T09:13:04.096Z,8.97
2023-04-26T09:14:03.996Z,8.91
2023-04-26T09:15:04.970Z,8.89
2023-04-26T09:16:05.108Z,8.92
2023-04-26T09:17:03.974Z,8.92
2023-04-26T09:18:04.034Z,8.94
2023-04-26T09:19:03.958Z,8.92
2023-04-26T09:20:05.317Z,8.91
2023-04-26T09:21:03.939Z,8.89
2023-04-26T09:22:03.906Z,8.88
2023-04-26T09:23:03.893Z,8.88
2023-04-26T09:24:03.888Z,8.89
2023-04-26T09:25:03.930Z,8.92
2023-04-26T09:26:03.866Z,8.94
2023-04-26T09:27:03.887Z,8.97
2023-04-26T09:28:05.804Z,8.94
2023-04-26T09:29:04.006Z,8.92
2023-04-26T09:30:03.852Z,8.88
2023-04-26T09:31:04.842Z,8.82
2023-04-26T09:32:03.797Z,8.81
2023-04-26T09:33:03.854Z,8.81
2023-04-26T09:34:03.792Z,8.84
2023-04-26T09:35:04.728Z,8.88
2023-04-26T09:36:03.768Z,8.95
2023-04-26T09:37:03.750Z,9.04
2023-04-26T09:38:10.472Z,9.18
2023-04-26T09:39:04.721Z,9.29
2023-04-26T09:40:03.710Z,9.36
2023-04-26T09:41:03.726Z,9.48
2023-04-26T09:42:03.692Z,9.61
2023-04-26T09:43:03.728Z,9.72
2023-04-26T09:44:03.656Z,9.82
2023-04-26T09:45:03.667Z,9.87
2023-04-26T09:46:03.642Z,9.94
2023-04-26T09:47:03.763Z,9.89
2023-04-26T09:48:03.625Z,9.83
2023-04-26T09:49:03.675Z,9.74
2023-04-26T09:50:03.585Z,9.68
2023-04-26T09:51:03.612Z,9.58
2023-04-26T09:52:03.567Z,9.48
2023-04-26T09:53:03.561Z,9.41
2023-04-26T09:54:03.572Z,9.39
2023-04-26T09:55:03.567Z,9.37
2023-04-26T09:56:03.745Z,9.39
2023-04-26T09:57:03.539Z,9.40
2023-04-26T09:58:03.880Z,9.40
2023-04-26T09:59:03.572Z,9.40
2023-04-26T10:00:03.470Z,9.39
2023-04-26T10:01:03.575Z,9.36
2023-04-26T10:02:04.457Z,9.32
2023-04-26T10:03:04.974Z,9.32
2023-04-26T10:04:03.464Z,9.34
2023-04-26T10:05:03.493Z,9.32
2023-04-26T10:06:03.416Z,9.29
2023-04-26T10:07:04.289Z,9.28
2023-04-26T10:08:03.404Z,9.28
2023-04-26T10:09:03.935Z,9.31
2023-04-26T10:10:03.363Z,9.32
2023-04-26T10:11:03.379Z,9.34
2023-04-26T10:12:03.436Z,9.36
2023-04-26T10:13:03.345Z,9.34
2023-04-26T10:14:03.334Z,9.34
2023-04-26T10:15:04.268Z,9.36
2023-04-26T10:16:03.400Z,9.36
2023-04-26T10:17:03.401Z,9.41
2023-04-26T10:18:03.329Z,9.48
2023-04-26T10:19:04.113Z,9.58
2023-04-26T10:20:03.270Z,9.68
2023-04-26T10:21:03.249Z,9.77
2023-04-26T10:22:03.233Z,9.91
2023-04-26T10:23:03.231Z,10.02
2023-04-26T10:24:04.700Z,10.17
2023-04-26T10:25:03.232Z,10.31
2023-04-26T10:26:03.235Z,10.40
2023-04-26T10:27:04.148Z,10.46
2023-04-26T10:28:04.656Z,10.46
2023-04-26T10:29:03.612Z,10.41
2023-04-26T10:30:03.947Z,10.41
2023-04-26T10:31:03.178Z,10.44
2023-04-26T10:32:03.224Z,10.51
2023-04-26T10:33:03.695Z,10.59
2023-04-26T10:34:03.111Z,10.61
2023-04-26T10:35:05.055Z,10.67
2023-04-26T10:36:03.083Z,10.67
2023-04-26T10:37:03.157Z,10.67
2023-04-26T10:38:04.558Z,10.69
2023-04-26T10:39:03.092Z,10.75
2023-04-26T10:40:03.039Z,10.81
2023-04-26T10:41:03.030Z,10.87
2023-04-26T10:42:03.027Z,10.89
2023-04-26T10:43:04.121Z,10.86
2023-04-26T10:44:03.043Z,10.84
2023-04-26T10:45:03.007Z,10.81
2023-04-26T10:46:03.007Z,10.74
2023-04-26T10:47:03.051Z,10.67
2023-04-26T10:48:02.990Z,10.63
2023-04-26T10:49:02.954Z,10.53
2023-04-26T10:50:05.086Z,10.48
2023-04-26T10:51:02.939Z,10.42
2023-04-26T10:52:02.911Z,10.40
2023-04-26T10:53:02.929Z,10.26
2023-04-26T10:54:02.917Z,10.13
2023-04-26T10:55:02.880Z,10.01
2023-04-26T10:56:02.877Z,9.95
2023-04-26T10:57:02.863Z,9.95
2023-04-26T10:58:03.085Z,9.95
2023-04-26T10:59:04.915Z,9.95
2023-04-26T11:00:03.851Z,9.97
2023-04-26T11:01:02.912Z,10.04
2023-04-26T11:02:02.851Z,10.09
2023-04-26T11:03:02.886Z,10.17
2023-04-26T11:04:02.837Z,10.30
2023-04-26T11:05:02.814Z,10.41
2023-04-26T11:06:02.789Z,10.53
2023-04-26T11:07:02.740Z,10.61
2023-04-26T11:08:02.727Z,10.68
2023-04-26T11:09:02.896Z,10.75
2023-04-26T11:10:02.697Z,10.76
2023-04-26T11:11:02.713Z,10.69
2023-04-26T11:12:02.693Z,10.60
2023-04-26T11:13:02.678Z,10.53
2023-04-26T11:14:03.483Z,10.42
2023-04-26T11:15:03.624Z,10.37
2023-04-26T11:16:02.733Z,10.34
2023-04-26T11:17:02.674Z,10.33
2023-04-26T11:18:03.037Z,10.33
2023-04-26T11:19:02.602Z,10.33
2023-04-26T11:20:02.622Z,10.31
2023-04-26T11:21:02.599Z,10.34
2023-04-26T11:22:02.598Z,10.33
2023-04-26T11:23:02.718Z,10.35
2023-04-26T11:24:02.557Z,10.41
2023-04-26T11:25:02.577Z,10.40
2023-04-26T11:26:02.533Z,10.41
2023-04-26T11:27:02.530Z,10.46
2023-04-26T11:28:02.517Z,10.53
2023-04-26T11:29:02.584Z,10.57
2023-04-26T11:30:02.501Z,10.60
2023-04-26T11:31:02.554Z,10.60
2023-04-26T11:32:02.499Z,10.57
2023-04-26T11:33:02.503Z,10.54
2023-04-26T11:34:02.463Z,10.53
2023-04-26T11:35:03.405Z,10.46
2023-04-26T11:36:02.485Z,10.42
2023-04-26T11:37:02.416Z,10.41
2023-04-26T11:38:02.401Z,10.44
2023-04-26T11:39:02.508Z,10.49
2023-04-26T11:40:02.396Z,10.53
2023-04-26T11:41:02.401Z,10.53
2023-04-26T11:42:02.362Z,10.53
2023-04-26T11:43:02.409Z,10.56
2023-04-26T11:44:02.415Z,10.57
2023-04-26T11:45:02.327Z,10.60
2023-04-26T11:46:02.300Z,10.64
2023-04-26T11:47:03.400Z,10.68
2023-04-26T11:48:02.342Z,10.68
2023-04-26T11:49:02.312Z,10.69
2023-04-26T11:50:02.280Z,10.69
2023-04-26T11:51:02.250Z,10.72
2023-04-26T11:52:02.248Z,10.76
2023-04-26T11:53:02.294Z,10.81
2023-04-26T11:54:02.246Z,10.86
2023-04-26T11:55:03.326Z,10.87
2023-04-26T11:56:02.215Z,10.86
2023-04-26T11:57:02.184Z,10.89
2023-04-26T11:58:02.224Z,10.87
2023-04-26T11:59:04.063Z,10.86
2023-04-26T12:00:02.152Z,10.82
2023-04-26T12:01:02.172Z,10.82
2023-04-26T12:02:02.175Z,10.84
2023-04-26T12:03:03.264Z,10.84
2023-04-26T12:04:02.231Z,10.87
2023-04-26T12:05:02.397Z,10.90
2023-04-26T12:06:02.087Z,10.99
2023-04-26T12:07:02.071Z,11.04
2023-04-26T12:08:02.072Z,11.11
2023-04-26T12:09:02.090Z,11.15
2023-04-26T12:10:02.066Z,11.11
2023-04-26T12:11:02.181Z,11.12
2023-04-26T12:12:02.067Z,11.15
2023-04-26T12:13:02.013Z,11.17
2023-04-26T12:14:02.009Z,11.23
2023-04-26T12:15:03.110Z,11.23
2023-04-26T12:16:03.837Z,11.17
2023-04-26T12:17:03.071Z,11.18
2023-04-26T12:18:02.027Z,11.22
2023-04-26T12:19:01.937Z,11.27
2023-04-26T12:20:01.946Z,11.36
2023-04-26T12:21:02.892Z,11.43
2023-04-26T12:22:01.935Z,11.47
2023-04-26T12:23:01.900Z,11.47
2023-04-26T12:24:01.898Z,11.50
2023-04-26T12:25:01.910Z,11.47
2023-04-26T12:26:02.881Z,11.45
2023-04-26T12:27:02.701Z,11.51
2023-04-26T12:28:01.859Z,11.57
2023-04-26T12:29:01.836Z,11.66
2023-04-26T12:30:01.824Z,11.73
2023-04-26T12:31:01.871Z,11.78
2023-04-26T12:32:01.880Z,11.84
2023-04-26T12:33:15.512Z,11.90
2023-04-26T12:34:02.815Z,11.97
2023-04-26T12:35:01.785Z,12.06
2023-04-26T12:36:01.760Z,12.15
2023-04-26T12:37:01.759Z,12.18
2023-04-26T12:38:01.765Z,12.17
2023-04-26T12:39:01.741Z,12.09
2023-04-26T12:40:01.751Z,12.04
2023-04-26T12:41:01.727Z,12.02
2023-04-26T12:42:01.748Z,12.03
2023-04-26T12:43:01.702Z,12.07
2023-04-26T12:44:01.678Z,12.12
2023-04-26T12:45:01.661Z,12.13
2023-04-26T12:46:01.722Z,12.15
2023-04-26T12:47:01.653Z,12.17
2023-04-26T12:48:01.720Z,12.20
2023-04-26T12:49:01.628Z,12.22
2023-04-26T12:50:01.638Z,12.27
2023-04-26T12:51:01.856Z,12.31
2023-04-26T12:52:01.586Z,12.35
2023-04-26T12:53:01.626Z,12.37
2023-04-26T12:54:01.588Z,12.36
2023-04-26T12:55:01.564Z,12.40
2023-04-26T12:56:01.538Z,12.43
2023-04-26T12:57:01.542Z,12.46
2023-04-26T12:58:01.524Z,12.40
2023-04-26T12:59:01.496Z,12.36
2023-04-26T13:00:01.773Z,12.29
2023-04-26T13:01:01.537Z,12.25
2023-04-26T13:02:01.642Z,12.22
2023-04-26T13:03:01.639Z,12.15
2023-04-26T13:04:01.587Z,12.13
2023-04-26T13:05:01.610Z,12.12
2023-04-26T13:06:01.436Z,12.12
2023-04-26T13:07:02.432Z,12.15
2023-04-26T13:08:01.436Z,12.12
2023-04-26T13:09:01.391Z,12.03
2023-04-26T13:10:01.388Z,11.94
2023-04-26T13:11:01.368Z,11.86
2023-04-26T13:12:02.214Z,11.83